sensor_id;sensor_type;location;lat;lon;timestamp;pressure;altitude;pressure_sealevel;temperature;humidity
37778;BME280;23615;51.506;7.678;2023-07-13T00:00:12;99837.72;;;18.53;73.31
37778;BME280;23615;51.506;7.678;2023-07-13T00:02:41;99831.56;;;18.43;73.19
37778;BME280;23615;51.506;7.678;2023-07-13T00:05:07;99841.28;;;18.44;73.42
37778;BME280;23615;51.506;7.678;2023-07-13T00:07:33;99847.88;;;18.27;73.70
37778;BME280;23615;51.506;7.678;2023-07-13T00:09:58;99838.44;;;18.25;73.47
37778;BME280;23615;51.506;7.678;2023-07-13T00:12:29;99845.44;;;18.26;73.36
37778;BME280;23615;51.506;7.678;2023-07-13T00:14:57;99837.94;;;18.18;73.46
37778;BME280;23615;51.506;7.678;2023-07-13T00:17:24;99846.84;;;18.13;73.25
37778;BME280;23615;51.506;7.678;2023-07-13T00:19:49;99838.78;;;18.08;73.44
37778;BME280;23615;51.506;7.678;2023-07-13T00:22:14;99849.56;;;18.13;73.59
37778;BME280;23615;51.506;7.678;2023-07-13T00:24:40;99853.09;;;18.09;73.22
37778;BME280;23615;51.506;7.678;2023-07-13T00:27:09;99855.00;;;18.08;73.22
37778;BME280;23615;51.506;7.678;2023-07-13T00:29:36;99855.25;;;18.12;73.20
37778;BME280;23615;51.506;7.678;2023-07-13T00:32:06;99855.25;;;18.07;73.02
37778;BME280;23615;51.506;7.678;2023-07-13T00:34:32;99855.31;;;17.97;73.76
37778;BME280;23615;51.506;7.678;2023-07-13T00:36:57;99851.78;;;17.96;73.85
37778;BME280;23615;51.506;7.678;2023-07-13T00:39:23;99849.34;;;18.00;73.20
37778;BME280;23615;51.506;7.678;2023-07-13T00:41:49;99845.84;;;17.99;73.20
37778;BME280;23615;51.506;7.678;2023-07-13T00:44:16;99844.28;;;17.88;73.27
37778;BME280;23615;51.506;7.678;2023-07-13T00:46:42;99852.13;;;17.84;73.26
37778;BME280;23615;51.506;7.678;2023-07-13T00:49:11;99856.19;;;17.82;73.54
37778;BME280;23615;51.506;7.678;2023-07-13T00:51:43;99850.00;;;17.71;73.72
37778;BME280;23615;51.506;7.678;2023-07-13T00:54:13;99850.81;;;17.67;73.95
37778;BME280;23615;51.506;7.678;2023-07-13T00:56:41;99850.28;;;17.65;73.88
37778;BME280;23615;51.506;7.678;2023-07-13T00:59:10;99850.28;;;17.54;74.05
37778;BME280;23615;51.506;7.678;2023-07-13T01:01:36;99846.50;;;17.50;74.38
37778;BME280;23615;51.506;7.678;2023-07-13T01:04:02;99844.09;;;17.54;74.13
37778;BME280;23615;51.506;7.678;2023-07-13T01:06:28;99842.50;;;17.48;74.44
37778;BME280;23615;51.506;7.678;2023-07-13T01:08:54;99831.41;;;17.49;74.21
37778;BME280;23615;51.506;7.678;2023-07-13T01:11:21;99839.50;;;17.49;73.96
37778;BME280;23615;51.506;7.678;2023-07-13T01:13:49;99838.16;;;17.42;73.96
37778;BME280;23615;51.506;7.678;2023-07-13T01:16:22;99842.75;;;17.41;74.12
37778;BME280;23615;51.506;7.678;2023-07-13T01:18:49;99843.84;;;17.35;74.35
37778;BME280;23615;51.506;7.678;2023-07-13T01:21:14;99844.91;;;17.39;74.13
37778;BME280;23615;51.506;7.678;2023-07-13T01:23:40;99837.38;;;17.36;74.26
37778;BME280;23615;51.506;7.678;2023-07-13T01:26:05;99839.25;;;17.31;74.38
37778;BME280;23615;51.506;7.678;2023-07-13T01:28:30;99836.03;;;17.24;74.43
37778;BME280;23615;51.506;7.678;2023-07-13T01:30:57;99839.28;;;17.20;74.57
37778;BME280;23615;51.506;7.678;2023-07-13T01:33:23;99833.88;;;17.15;74.49
37778;BME280;23615;51.506;7.678;2023-07-13T01:35:48;99835.50;;;17.21;74.74
37778;BME280;23615;51.506;7.678;2023-07-13T01:38:16;99846.56;;;17.20;74.40
37778;BME280;23615;51.506;7.678;2023-07-13T01:40:42;99840.91;;;17.16;74.51
37778;BME280;23615;51.506;7.678;2023-07-13T01:43:08;99840.09;;;17.11;74.63
37778;BME280;23615;51.506;7.678;2023-07-13T01:45:34;99841.69;;;17.12;74.80
37778;BME280;23615;51.506;7.678;2023-07-13T01:47:59;99843.88;;;17.10;74.57
37778;BME280;23615;51.506;7.678;2023-07-13T01:50:25;99840.38;;;17.09;74.36
37778;BME280;23615;51.506;7.678;2023-07-13T01:52:51;99841.19;;;17.00;74.96
37778;BME280;23615;51.506;7.678;2023-07-13T01:55:16;99835.78;;;16.95;75.22
37778;BME280;23615;51.506;7.678;2023-07-13T01:57:42;99843.34;;;16.88;75.48
37778;BME280;23615;51.506;7.678;2023-07-13T02:00:09;99854.91;;;16.73;75.86
37778;BME280;23615;51.506;7.678;2023-07-13T02:02:34;99852.47;;;16.66;76.14
37778;BME280;23615;51.506;7.678;2023-07-13T02:05:00;99844.69;;;16.65;75.88
37778;BME280;23615;51.506;7.678;2023-07-13T02:07:25;99851.09;;;16.59;76.58
37778;BME280;23615;51.506;7.678;2023-07-13T02:09:50;99849.75;;;16.56;76.85
37778;BME280;23615;51.506;7.678;2023-07-13T02:12:16;99844.63;;;16.55;77.06
37778;BME280;23615;51.506;7.678;2023-07-13T02:14:41;99847.59;;;16.53;76.94
37778;BME280;23615;51.506;7.678;2023-07-13T02:17:06;99852.69;;;16.50;77.24
37778;BME280;23615;51.506;7.678;2023-07-13T02:19:32;99853.50;;;16.50;77.08
37778;BME280;23615;51.506;7.678;2023-07-13T02:21:57;99858.09;;;16.60;76.57
37778;BME280;23615;51.506;7.678;2023-07-13T02:24:23;99855.41;;;16.55;76.56
37778;BME280;23615;51.506;7.678;2023-07-13T02:26:48;99862.47;;;16.66;76.35
37778;BME280;23615;51.506;7.678;2023-07-13T02:29:14;99859.75;;;16.66;76.03
37778;BME280;23615;51.506;7.678;2023-07-13T02:31:39;99853.81;;;16.69;75.68
37778;BME280;23615;51.506;7.678;2023-07-13T02:34:05;99851.63;;;16.61;75.87
37778;BME280;23615;51.506;7.678;2023-07-13T02:36:31;99853.78;;;16.59;76.02
37778;BME280;23615;51.506;7.678;2023-07-13T02:39:00;99850.00;;;16.55;76.08
37778;BME280;23615;51.506;7.678;2023-07-13T02:41:26;99843.56;;;16.56;76.16
37778;BME280;23615;51.506;7.678;2023-07-13T02:43:51;99846.47;;;16.49;76.32
37778;BME280;23615;51.506;7.678;2023-07-13T02:46:17;99847.56;;;16.48;76.15
37778;BME280;23615;51.506;7.678;2023-07-13T02:48:44;99846.47;;;16.39;76.46
37778;BME280;23615;51.506;7.678;2023-07-13T02:51:09;99844.56;;;16.39;76.71
37778;BME280;23615;51.506;7.678;2023-07-13T02:53:35;99852.94;;;16.38;76.53
37778;BME280;23615;51.506;7.678;2023-07-13T02:56:01;99844.53;;;16.24;77.18
37778;BME280;23615;51.506;7.678;2023-07-13T02:58:26;99848.03;;;16.20;77.27
37778;BME280;23615;51.506;7.678;2023-07-13T03:00:52;99855.31;;;16.19;77.51
37778;BME280;23615;51.506;7.678;2023-07-13T03:03:17;99849.38;;;16.17;77.60
37778;BME280;23615;51.506;7.678;2023-07-13T03:05:44;99855.84;;;16.16;77.76
37778;BME280;23615;51.506;7.678;2023-07-13T03:08:11;99853.38;;;16.09;77.88
37778;BME280;23615;51.506;7.678;2023-07-13T03:10:37;99854.19;;;16.10;77.99
37778;BME280;23615;51.506;7.678;2023-07-13T03:13:03;99859.53;;;16.05;78.22
37778;BME280;23615;51.506;7.678;2023-07-13T03:15:28;99854.69;;;15.97;78.19
37778;BME280;23615;51.506;7.678;2023-07-13T03:17:54;99857.06;;;15.88;78.62
37778;BME280;23615;51.506;7.678;2023-07-13T03:20:19;99848.69;;;15.80;78.95
37778;BME280;23615;51.506;7.678;2023-07-13T03:22:45;99863.94;;;15.69;79.41
37778;BME280;23615;51.506;7.678;2023-07-13T03:25:11;99862.88;;;15.65;79.47
37778;BME280;23615;51.506;7.678;2023-07-13T03:27:37;99865.25;;;15.61;79.90
37778;BME280;23615;51.506;7.678;2023-07-13T03:30:06;99869.56;;;15.62;79.89
37778;BME280;23615;51.506;7.678;2023-07-13T03:32:31;99864.97;;;15.58;79.89
37778;BME280;23615;51.506;7.678;2023-07-13T03:34:57;99874.16;;;15.67;79.89
37778;BME280;23615;51.506;7.678;2023-07-13T03:37:22;99878.53;;;15.78;79.36
37778;BME280;23615;51.506;7.678;2023-07-13T03:39:48;99863.94;;;15.69;79.70
37778;BME280;23615;51.506;7.678;2023-07-13T03:42:13;99870.91;;;15.60;80.20
37778;BME280;23615;51.506;7.678;2023-07-13T03:44:40;99878.72;;;15.61;80.39
37778;BME280;23615;51.506;7.678;2023-07-13T03:47:06;99885.97;;;15.66;80.28
37778;BME280;23615;51.506;7.678;2023-07-13T03:49:33;99893.19;;;15.55;80.79
37778;BME280;23615;51.506;7.678;2023-07-13T03:51:58;99893.94;;;15.51;81.12
37778;BME280;23615;51.506;7.678;2023-07-13T03:54:24;99895.09;;;15.55;81.13
37778;BME280;23615;51.506;7.678;2023-07-13T03:56:49;99902.00;;;15.51;81.47
37778;BME280;23615;51.506;7.678;2023-07-13T03:59:14;99897.50;;;15.56;81.37
37778;BME280;23615;51.506;7.678;2023-07-13T04:01:40;99897.69;;;15.50;81.17
37778;BME280;23615;51.506;7.678;2023-07-13T04:04:05;99894.50;;;15.53;81.55
37778;BME280;23615;51.506;7.678;2023-07-13T04:06:31;99909.66;;;15.64;81.08
37778;BME280;23615;51.506;7.678;2023-07-13T04:08:59;99901.59;;;15.64;80.69
37778;BME280;23615;51.506;7.678;2023-07-13T04:11:27;99904.56;;;15.67;80.52
37778;BME280;23615;51.506;7.678;2023-07-13T04:13:53;99908.06;;;15.68;80.24
37778;BME280;23615;51.506;7.678;2023-07-13T04:16:19;99902.72;;;15.73;80.78
37778;BME280;23615;51.506;7.678;2023-07-13T04:18:45;99902.72;;;15.73;80.91
37778;BME280;23615;51.506;7.678;2023-07-13T04:21:12;99905.19;;;15.80;80.41
37778;BME280;23615;51.506;7.678;2023-07-13T04:23:38;99904.91;;;15.81;80.33
37778;BME280;23615;51.506;7.678;2023-07-13T04:26:04;99902.78;;;15.83;80.54
37778;BME280;23615;51.506;7.678;2023-07-13T04:28:29;99910.38;;;15.91;79.95
37778;BME280;23615;51.506;7.678;2023-07-13T04:30:56;99914.69;;;15.97;79.87
37778;BME280;23615;51.506;7.678;2023-07-13T04:33:21;99911.97;;;15.92;80.07
37778;BME280;23615;51.506;7.678;2023-07-13T04:35:48;99912.00;;;15.97;80.35
37778;BME280;23615;51.506;7.678;2023-07-13T04:38:14;99919.31;;;16.02;80.20
37778;BME280;23615;51.506;7.678;2023-07-13T04:40:42;99922.78;;;16.02;80.31
37778;BME280;23615;51.506;7.678;2023-07-13T04:43:08;99919.31;;;16.07;80.52
37778;BME280;23615;51.506;7.678;2023-07-13T04:45:34;99914.47;;;16.09;80.48
37778;BME280;23615;51.506;7.678;2023-07-13T04:48:00;99922.81;;;16.13;80.61
37778;BME280;23615;51.506;7.678;2023-07-13T04:50:25;99922.56;;;16.14;80.57
37778;BME280;23615;51.506;7.678;2023-07-13T04:52:50;99918.84;;;16.20;80.24
37778;BME280;23615;51.506;7.678;2023-07-13T04:55:16;99920.22;;;16.28;80.15
37778;BME280;23615;51.506;7.678;2023-07-13T04:57:42;99914.81;;;16.23;80.29
37778;BME280;23615;51.506;7.678;2023-07-13T05:00:07;99926.41;;;16.28;80.69
37778;BME280;23615;51.506;7.678;2023-07-13T05:02:33;99920.25;;;16.38;80.93
37778;BME280;23615;51.506;7.678;2023-07-13T05:05:00;99920.25;;;16.43;80.62
37778;BME280;23615;51.506;7.678;2023-07-13T05:07:26;99921.34;;;16.42;80.69
37778;BME280;23615;51.506;7.678;2023-07-13T05:09:51;99924.59;;;16.44;81.45
37778;BME280;23615;51.506;7.678;2023-07-13T05:12:17;99931.84;;;16.48;81.33
37778;BME280;23615;51.506;7.678;2023-07-13T05:14:42;99927.88;;;16.56;81.38
37778;BME280;23615;51.506;7.678;2023-07-13T05:17:08;99925.75;;;16.68;81.08
37778;BME280;23615;51.506;7.678;2023-07-13T05:19:33;99936.00;;;16.71;81.01
37778;BME280;23615;51.506;7.678;2023-07-13T05:21:58;99934.16;;;16.82;80.95
37778;BME280;23615;51.506;7.678;2023-07-13T05:24:24;99934.66;;;16.69;80.93
37778;BME280;23615;51.506;7.678;2023-07-13T05:26:49;99935.97;;;16.66;81.51
37778;BME280;23615;51.506;7.678;2023-07-13T05:29:14;99951.09;;;16.72;81.99
37778;BME280;23615;51.506;7.678;2023-07-13T05:31:40;99946.25;;;16.74;81.40
37778;BME280;23615;51.506;7.678;2023-07-13T05:34:05;99943.81;;;16.73;81.78
37778;BME280;23615;51.506;7.678;2023-07-13T05:36:30;99950.28;;;16.77;81.65
37778;BME280;23615;51.506;7.678;2023-07-13T05:38:56;99953.25;;;16.70;82.05
37778;BME280;23615;51.506;7.678;2023-07-13T05:41:21;99944.63;;;16.73;82.08
37778;BME280;23615;51.506;7.678;2023-07-13T05:43:46;99960.28;;;16.87;81.88
37778;BME280;23615;51.506;7.678;2023-07-13T05:46:11;99968.66;;;16.95;82.11
37778;BME280;23615;51.506;7.678;2023-07-13T05:48:37;99968.41;;;16.92;81.59
37778;BME280;23615;51.506;7.678;2023-07-13T05:51:02;99973.00;;;17.01;81.58
37778;BME280;23615;51.506;7.678;2023-07-13T05:53:27;99975.16;;;17.09;81.45
37778;BME280;23615;51.506;7.678;2023-07-13T05:55:53;99972.72;;;17.08;81.26
37778;BME280;23615;51.506;7.678;2023-07-13T05:58:19;99980.56;;;17.09;81.75
37778;BME280;23615;51.506;7.678;2023-07-13T06:00:46;99980.31;;;17.26;81.35
37778;BME280;23615;51.506;7.678;2023-07-13T06:03:11;99977.59;;;17.21;81.71
37778;BME280;23615;51.506;7.678;2023-07-13T06:05:37;99984.88;;;17.31;81.25
37778;BME280;23615;51.506;7.678;2023-07-13T06:08:03;99986.25;;;17.33;81.08
37778;BME280;23615;51.506;7.678;2023-07-13T06:10:32;99983.00;;;17.26;81.03
37778;BME280;23615;51.506;7.678;2023-07-13T06:12:57;99977.56;;;17.01;81.91
37778;BME280;23615;51.506;7.678;2023-07-13T06:15:23;99990.25;;;17.05;82.03
37778;BME280;23615;51.506;7.678;2023-07-13T06:17:48;99998.59;;;17.04;82.36
37778;BME280;23615;51.506;7.678;2023-07-13T06:20:13;99990.78;;;17.12;82.40
37778;BME280;23615;51.506;7.678;2023-07-13T06:22:39;99984.59;;;17.22;81.72
37778;BME280;23615;51.506;7.678;2023-07-13T06:25:04;99986.50;;;17.32;82.22
37778;BME280;23615;51.506;7.678;2023-07-13T06:27:30;99992.19;;;17.45;81.83
37778;BME280;23615;51.506;7.678;2023-07-13T06:29:55;99994.88;;;17.50;81.57
37778;BME280;23615;51.506;7.678;2023-07-13T06:32:21;99999.22;;;17.46;81.53
37778;BME280;23615;51.506;7.678;2023-07-13T06:34:46;99998.41;;;17.56;80.84
37778;BME280;23615;51.506;7.678;2023-07-13T06:37:11;100005.13;;;17.53;81.01
37778;BME280;23615;51.506;7.678;2023-07-13T06:39:37;100010.00;;;17.62;81.00
37778;BME280;23615;51.506;7.678;2023-07-13T06:42:02;100017.03;;;17.68;80.99
37778;BME280;23615;51.506;7.678;2023-07-13T06:44:27;100011.59;;;17.57;80.94
37778;BME280;23615;51.506;7.678;2023-07-13T06:46:53;100015.41;;;17.56;81.73
37778;BME280;23615;51.506;7.678;2023-07-13T06:49:18;100020.00;;;17.71;81.91
37778;BME280;23615;51.506;7.678;2023-07-13T06:51:44;100015.16;;;17.83;81.24
37778;BME280;23615;51.506;7.678;2023-07-13T06:54:09;100018.38;;;17.80;80.56
37778;BME280;23615;51.506;7.678;2023-07-13T06:56:34;100016.47;;;17.76;80.86
37778;BME280;23615;51.506;7.678;2023-07-13T06:58:59;100007.06;;;17.73;81.29
37778;BME280;23615;51.506;7.678;2023-07-13T07:01:25;100017.03;;;17.78;81.73
37778;BME280;23615;51.506;7.678;2023-07-13T07:03:50;100020.81;;;17.92;81.74
37778;BME280;23615;51.506;7.678;2023-07-13T07:06:18;100019.44;;;17.94;81.57
37778;BME280;23615;51.506;7.678;2023-07-13T07:08:44;100018.06;;;18.07;81.46
37778;BME280;23615;51.506;7.678;2023-07-13T07:11:16;100021.56;;;18.18;81.10
37778;BME280;23615;51.506;7.678;2023-07-13T07:13:42;100016.97;;;18.23;80.97
37778;BME280;23615;51.506;7.678;2023-07-13T07:16:07;100012.66;;;18.17;80.48
37778;BME280;23615;51.506;7.678;2023-07-13T07:18:34;100025.91;;;18.19;80.62
37778;BME280;23615;51.506;7.678;2023-07-13T07:20:59;100025.06;;;18.23;80.85
37778;BME280;23615;51.506;7.678;2023-07-13T07:23:24;100018.88;;;18.18;80.65
37778;BME280;23615;51.506;7.678;2023-07-13T07:25:50;100020.75;;;18.22;80.89
37778;BME280;23615;51.506;7.678;2023-07-13T07:28:17;100021.81;;;18.26;80.73
37778;BME280;23615;51.506;7.678;2023-07-13T07:30:46;100026.66;;;18.35;80.93
37778;BME280;23615;51.506;7.678;2023-07-13T07:33:12;100034.22;;;18.32;79.65
37778;BME280;23615;51.506;7.678;2023-07-13T07:35:38;100025.56;;;18.30;80.30
37778;BME280;23615;51.506;7.678;2023-07-13T07:38:03;100025.56;;;18.30;80.40
37778;BME280;23615;51.506;7.678;2023-07-13T07:40:28;100023.69;;;18.31;80.44
37778;BME280;23615;51.506;7.678;2023-07-13T07:42:54;100027.19;;;18.31;80.54
37778;BME280;23615;51.506;7.678;2023-07-13T07:45:20;100023.97;;;18.35;80.70
37778;BME280;23615;51.506;7.678;2023-07-13T07:47:45;100032.34;;;18.38;79.03
37778;BME280;23615;51.506;7.678;2023-07-13T07:50:11;100028.84;;;18.27;79.79
37778;BME280;23615;51.506;7.678;2023-07-13T07:52:36;100032.34;;;18.28;79.36
37778;BME280;23615;51.506;7.678;2023-07-13T07:55:04;100034.78;;;18.24;79.53
37778;BME280;23615;51.506;7.678;2023-07-13T07:57:29;100029.38;;;18.29;80.01
37778;BME280;23615;51.506;7.678;2023-07-13T07:59:55;100026.63;;;18.45;79.10
37778;BME280;23615;51.506;7.678;2023-07-13T08:02:20;100035.25;;;18.62;78.68
37778;BME280;23615;51.506;7.678;2023-07-13T08:04:45;100027.94;;;18.57;78.15
37778;BME280;23615;51.506;7.678;2023-07-13T08:07:10;100020.38;;;18.54;78.07
37778;BME280;23615;51.506;7.678;2023-07-13T08:09:36;100027.41;;;18.65;77.90
37778;BME280;23615;51.506;7.678;2023-07-13T08:12:01;100034.13;;;18.73;78.27
37778;BME280;23615;51.506;7.678;2023-07-13T08:14:27;100034.63;;;18.80;76.93
37778;BME280;23615;51.506;7.678;2023-07-13T08:16:52;100024.59;;;18.86;77.78
37778;BME280;23615;51.506;7.678;2023-07-13T08:19:18;100035.06;;;19.02;77.96
37778;BME280;23615;51.506;7.678;2023-07-13T08:21:44;100032.81;;;19.20;77.27
37778;BME280;23615;51.506;7.678;2023-07-13T08:24:09;100037.16;;;19.16;76.18
37778;BME280;23615;51.506;7.678;2023-07-13T08:26:35;100026.06;;;19.17;76.31
37778;BME280;23615;51.506;7.678;2023-07-13T08:29:00;100030.53;;;19.37;76.57
37778;BME280;23615;51.506;7.678;2023-07-13T08:31:25;100030.72;;;19.51;75.62
37778;BME280;23615;51.506;7.678;2023-07-13T08:33:51;100033.41;;;19.56;75.78
37778;BME280;23615;51.506;7.678;2023-07-13T08:36:16;100027.72;;;19.57;75.14
37778;BME280;23615;51.506;7.678;2023-07-13T08:38:41;100029.56;;;19.62;75.70
37778;BME280;23615;51.506;7.678;2023-07-13T08:41:13;100032.34;;;19.47;75.64
37778;BME280;23615;51.506;7.678;2023-07-13T08:43:39;100039.13;;;19.49;76.38
37778;BME280;23615;51.506;7.678;2023-07-13T08:48:55;100026.69;;;19.48;76.01
37778;BME280;23615;51.506;7.678;2023-07-13T08:53:50;100029.34;;;19.53;75.05
37778;BME280;23615;51.506;7.678;2023-07-13T08:56:21;100027.75;;;19.52;75.48
37778;BME280;23615;51.506;7.678;2023-07-13T08:58:51;100024.41;;;19.60;75.91
37778;BME280;23615;51.506;7.678;2023-07-13T09:01:54;100019.47;;;19.72;76.59
37778;BME280;23615;51.506;7.678;2023-07-13T09:04:26;100025.88;;;19.82;74.11
37778;BME280;23615;51.506;7.678;2023-07-13T09:07:11;100023.50;;;19.75;74.21
37778;BME280;23615;51.506;7.678;2023-07-13T09:09:50;100020.69;;;19.85;74.56
37778;BME280;23615;51.506;7.678;2023-07-13T09:12:34;100023.78;;;20.02;73.65
37778;BME280;23615;51.506;7.678;2023-07-13T09:15:06;100032.84;;;20.16;74.40
37778;BME280;23615;51.506;7.678;2023-07-13T09:17:51;100034.09;;;20.29;72.61
37778;BME280;23615;51.506;7.678;2023-07-13T09:20:28;100038.44;;;20.25;73.63
37778;BME280;23615;51.506;7.678;2023-07-13T09:22:56;100039.66;;;20.14;74.43
37778;BME280;23615;51.506;7.678;2023-07-13T09:25:29;100039.09;;;20.17;73.70
37778;BME280;23615;51.506;7.678;2023-07-13T09:28:02;100033.47;;;20.08;73.36
37778;BME280;23615;51.506;7.678;2023-07-13T09:31:08;100036.28;;;19.98;73.30
37778;BME280;23615;51.506;7.678;2023-07-13T09:33:37;100041.88;;;20.07;74.10
37778;BME280;23615;51.506;7.678;2023-07-13T09:36:17;100039.94;;;20.12;74.04
37778;BME280;23615;51.506;7.678;2023-07-13T09:38:44;100040.31;;;20.30;73.34
37778;BME280;23615;51.506;7.678;2023-07-13T09:44:14;100042.16;;;20.58;71.67
37778;BME280;23615;51.506;7.678;2023-07-13T09:46:51;100045.63;;;20.87;70.51
37778;BME280;23615;51.506;7.678;2023-07-13T09:49:17;100040.44;;;21.10;70.83
37778;BME280;23615;51.506;7.678;2023-07-13T09:51:43;100043.38;;;21.13;70.26
37778;BME280;23615;51.506;7.678;2023-07-13T09:54:19;100046.22;;;21.03;70.11
37778;BME280;23615;51.506;7.678;2023-07-13T09:56:45;100040.25;;;21.25;69.87
37778;BME280;23615;51.506;7.678;2023-07-13T09:59:32;100041.28;;;21.48;69.41
37778;BME280;23615;51.506;7.678;2023-07-13T10:01:57;100050.00;;;21.63;69.11
37778;BME280;23615;51.506;7.678;2023-07-13T10:04:30;100044.69;;;21.72;68.40
37778;BME280;23615;51.506;7.678;2023-07-13T10:07:08;100042.63;;;21.83;68.68
37778;BME280;23615;51.506;7.678;2023-07-13T10:09:34;100040.50;;;21.80;67.74
37778;BME280;23615;51.506;7.678;2023-07-13T10:11:59;100035.34;;;21.78;67.62
37778;BME280;23615;51.506;7.678;2023-07-13T10:14:25;100043.75;;;21.95;67.99
37778;BME280;23615;51.506;7.678;2023-07-13T10:16:57;100043.53;;;22.11;66.88
37778;BME280;23615;51.506;7.678;2023-07-13T10:19:30;100031.44;;;22.17;67.00
37778;BME280;23615;51.506;7.678;2023-07-13T10:22:00;100030.38;;;22.45;68.12
37778;BME280;23615;51.506;7.678;2023-07-13T10:24:31;100032.16;;;22.50;66.59
37778;BME280;23615;51.506;7.678;2023-07-13T10:27:01;100040.94;;;22.60;65.74
37778;BME280;23615;51.506;7.678;2023-07-13T10:29:34;100040.44;;;22.45;65.92
37778;BME280;23615;51.506;7.678;2023-07-13T10:32:01;100040.75;;;22.29;65.02
37778;BME280;23615;51.506;7.678;2023-07-13T10:34:27;100047.84;;;22.12;65.07
37778;BME280;23615;51.506;7.678;2023-07-13T10:36:53;100034.47;;;21.83;65.69
37778;BME280;23615;51.506;7.678;2023-07-13T10:39:21;100047.41;;;21.72;66.67
37778;BME280;23615;51.506;7.678;2023-07-13T10:41:52;100037.66;;;21.52;66.60
37778;BME280;23615;51.506;7.678;2023-07-13T10:44:23;100047.56;;;21.62;65.72
37778;BME280;23615;51.506;7.678;2023-07-13T10:46:55;100053.53;;;21.64;66.25
37778;BME280;23615;51.506;7.678;2023-07-13T10:49:22;100060.34;;;21.61;66.63
37778;BME280;23615;51.506;7.678;2023-07-13T10:51:48;100053.53;;;21.45;66.43
37778;BME280;23615;51.506;7.678;2023-07-13T10:56:45;100049.63;;;21.33;67.62
37778;BME280;23615;51.506;7.678;2023-07-13T10:59:35;100046.41;;;21.31;68.31
37778;BME280;23615;51.506;7.678;2023-07-13T11:04:40;100048.53;;;21.52;67.50
37778;BME280;23615;51.506;7.678;2023-07-13T11:07:18;100050.28;;;21.62;66.66
37778;BME280;23615;51.506;7.678;2023-07-13T11:09:49;100052.13;;;21.67;67.22
37778;BME280;23615;51.506;7.678;2023-07-13T11:20:09;100055.34;;;22.47;65.50
37778;BME280;23615;51.506;7.678;2023-07-13T11:22:46;100059.25;;;22.41;64.61
37778;BME280;23615;51.506;7.678;2023-07-13T11:25:30;100049.38;;;22.31;64.55
37778;BME280;23615;51.506;7.678;2023-07-13T11:30:37;100048.75;;;22.07;65.47
37778;BME280;23615;51.506;7.678;2023-07-13T11:33:14;100048.88;;;21.83;65.31
37778;BME280;23615;51.506;7.678;2023-07-13T11:38:36;100060.88;;;21.77;66.14
37778;BME280;23615;51.506;7.678;2023-07-13T11:41:14;100065.00;;;21.93;66.48
37778;BME280;23615;51.506;7.678;2023-07-13T11:43:40;100057.91;;;22.11;66.21
37778;BME280;23615;51.506;7.678;2023-07-13T11:46:13;100053.28;;;22.12;65.74
37778;BME280;23615;51.506;7.678;2023-07-13T11:48:39;100052.81;;;22.37;65.66
37778;BME280;23615;51.506;7.678;2023-07-13T11:51:05;100060.88;;;22.42;65.42
37778;BME280;23615;51.506;7.678;2023-07-13T11:53:44;100065.38;;;22.33;64.75
37778;BME280;23615;51.506;7.678;2023-07-13T11:56:10;100058.78;;;22.39;64.52
37778;BME280;23615;51.506;7.678;2023-07-13T11:58:35;100050.81;;;22.43;64.60
37778;BME280;23615;51.506;7.678;2023-07-13T12:01:02;100049.69;;;22.30;64.59
37778;BME280;23615;51.506;7.678;2023-07-13T12:03:30;100043.97;;;22.45;65.58
37778;BME280;23615;51.506;7.678;2023-07-13T12:06:00;100053.13;;;22.63;64.73
37778;BME280;23615;51.506;7.678;2023-07-13T12:08:26;100046.13;;;22.75;63.50
37778;BME280;23615;51.506;7.678;2023-07-13T12:11:05;100046.59;;;22.91;61.58
37778;BME280;23615;51.506;7.678;2023-07-13T12:13:36;100051.03;;;22.87;62.20
37778;BME280;23615;51.506;7.678;2023-07-13T12:16:10;100051.00;;;23.01;61.83
37778;BME280;23615;51.506;7.678;2023-07-13T12:18:36;100050.84;;;22.84;62.92
37778;BME280;23615;51.506;7.678;2023-07-13T12:21:02;100043.88;;;22.91;62.52
37778;BME280;23615;51.506;7.678;2023-07-13T12:23:30;100045.50;;;22.92;62.39
37778;BME280;23615;51.506;7.678;2023-07-13T12:25:58;100040.56;;;22.94;61.27
37778;BME280;23615;51.506;7.678;2023-07-13T12:28:37;100042.22;;;23.04;61.09
37778;BME280;23615;51.506;7.678;2023-07-13T12:31:05;100048.59;;;23.35;63.19
37778;BME280;23615;51.506;7.678;2023-07-13T12:33:32;100044.56;;;23.69;61.84
37778;BME280;23615;51.506;7.678;2023-07-13T12:36:00;100045.06;;;23.93;60.05
37778;BME280;23615;51.506;7.678;2023-07-13T12:38:27;100040.00;;;24.09;59.07
37778;BME280;23615;51.506;7.678;2023-07-13T12:40:53;100040.50;;;24.11;58.60
37778;BME280;23615;51.506;7.678;2023-07-13T12:43:22;100040.53;;;23.88;58.93
37778;BME280;23615;51.506;7.678;2023-07-13T12:46:16;100033.97;;;23.67;58.49
37778;BME280;23615;51.506;7.678;2023-07-13T12:48:42;100035.59;;;23.32;58.09
37778;BME280;23615;51.506;7.678;2023-07-13T12:51:12;100028.06;;;23.29;58.77
37778;BME280;23615;51.506;7.678;2023-07-13T12:53:47;100031.25;;;23.31;59.76
37778;BME280;23615;51.506;7.678;2023-07-13T12:56:19;100038.81;;;23.12;60.24
37778;BME280;23615;51.506;7.678;2023-07-13T12:58:47;100029.25;;;23.01;60.54
37778;BME280;23615;51.506;7.678;2023-07-13T13:01:17;100033.00;;;23.27;60.93
37778;BME280;23615;51.506;7.678;2023-07-13T13:03:48;100032.22;;;23.49;59.99
37778;BME280;23615;51.506;7.678;2023-07-13T13:08:44;100034.72;;;23.59;60.44
37778;BME280;23615;51.506;7.678;2023-07-13T13:11:10;100034.84;;;23.76;60.35
37778;BME280;23615;51.506;7.678;2023-07-13T13:13:35;100044.81;;;23.81;58.40
37778;BME280;23615;51.506;7.678;2023-07-13T13:18:45;100029.06;;;24.00;58.22
37778;BME280;23615;51.506;7.678;2023-07-13T13:21:11;100037.75;;;24.33;58.85
37778;BME280;23615;51.506;7.678;2023-07-13T13:23:36;100023.16;;;24.07;56.47
37778;BME280;23615;51.506;7.678;2023-07-13T13:26:02;100033.91;;;24.03;57.04
37778;BME280;23615;51.506;7.678;2023-07-13T13:28:28;100038.97;;;23.96;56.27